createdAt,value
2022-07-29T01:23:08.680Z,3.40
2022-07-29T01:29:08.479Z,3.30
2022-07-29T07:53:22.178Z,4.55
2022-07-29T07:58:36.410Z,5.20
2022-07-29T08:01:04.231Z,5.57
2022-07-29T08:03:31.319Z,4.57
2022-07-29T08:05:58.706Z,5.15
2022-07-29T08:08:25.802Z,4.68
2022-07-29T08:11:02.167Z,5.13
2022-07-29T08:13:33.049Z,4.47
2022-07-29T08:16:02.253Z,4.80
2022-07-29T08:18:31.912Z,5.00
2022-07-29T08:20:59.838Z,4.68
2022-07-29T08:23:32.877Z,5.15
2022-07-29T08:26:16.548Z,5.32
2022-07-29T08:28:47.067Z,5.03
2022-07-29T08:31:15.679Z,4.97
2022-07-29T08:33:43.684Z,5.18
2022-07-29T08:36:10.951Z,5.68
2022-07-29T08:38:38.041Z,5.47
2022-07-29T08:41:05.044Z,5.00
2022-07-29T08:43:33.275Z,4.85
2022-07-29T08:46:00.540Z,4.55
2022-07-29T08:48:27.558Z,5.30
2022-07-29T08:50:57.403Z,4.85
2022-07-29T08:53:28.105Z,4.90
2022-07-29T08:55:55.909Z,4.70
2022-07-29T09:49:26.009Z,5.40
2022-07-29T09:52:08.986Z,4.88
2022-07-29T09:54:39.992Z,5.25
2022-07-29T09:57:28.644Z,5.53
2022-07-29T10:00:16.066Z,5.22
2022-07-29T10:02:45.580Z,5.78
2022-07-29T10:05:26.437Z,4.93
2022-07-29T10:07:57.455Z,5.05
2022-07-29T10:13:07.202Z,5.18
2022-07-29T10:15:40.182Z,5.65
2022-07-29T10:18:08.992Z,5.70
2022-07-29T10:20:36.699Z,6.95
2022-07-29T10:23:03.804Z,7.30
2022-07-29T10:25:31.479Z,6.50
2022-07-29T10:27:58.898Z,6.72
2022-07-29T10:30:27.535Z,6.00
2022-07-29T10:33:32.206Z,6.43
2022-07-29T10:36:43.281Z,5.70
2022-07-29T10:42:34.181Z,5.53
2022-07-29T10:45:04.379Z,5.40
2022-07-29T14:29:37.775Z,6.07
2022-07-29T14:32:08.463Z,6.40
2022-07-29T14:39:36.921Z,7.80
2022-07-29T14:42:06.701Z,7.28
2022-07-29T14:44:33.921Z,7.28
2022-07-29T14:47:08.056Z,8.15
2022-07-29T14:49:36.066Z,7.65
2022-07-29T14:52:03.649Z,7.95
2022-07-29T14:54:30.734Z,8.52
2022-07-29T14:56:58.681Z,7.18
2022-07-29T14:59:27.150Z,6.57
2022-07-29T15:01:54.417Z,5.30
2022-07-29T15:04:22.133Z,6.95
2022-07-29T15:06:49.900Z,5.90
2022-07-29T15:09:16.957Z,6.20
2022-07-29T15:11:44.046Z,6.53
2022-07-29T15:14:13.831Z,6.20
2022-07-29T15:16:43.607Z,5.53
2022-07-29T15:19:14.726Z,6.70
2022-07-29T15:21:48.381Z,6.20
2022-07-29T15:24:17.901Z,6.32
2022-07-29T15:26:48.581Z,7.75
2022-07-29T15:29:16.627Z,6.65
2022-07-29T15:31:44.537Z,7.55
2022-07-29T15:34:11.864Z,7.40
2022-07-29T15:36:54.586Z,7.07
2022-07-29T15:39:23.240Z,7.97
2022-07-29T15:41:53.814Z,8.02
2022-07-29T15:44:21.618Z,8.13
2022-07-29T15:49:47.164Z,8.57
2022-07-29T15:52:25.806Z,7.75
2022-07-29T15:54:57.716Z,7.30
2022-07-29T15:57:25.497Z,7.07
2022-07-29T15:59:52.753Z,8.27
2022-07-29T16:02:20.069Z,6.90
2022-07-29T16:04:47.394Z,7.05
2022-07-29T16:07:16.278Z,8.75
2022-07-29T16:09:45.471Z,8.27
2022-07-29T17:34:29.415Z,7.72
2022-07-29T17:36:56.838Z,8.57
2022-07-29T17:39:24.072Z,6.90
2022-07-29T17:41:51.656Z,7.75
2022-07-29T17:44:18.677Z,8.55
2022-07-29T17:46:46.295Z,7.68
2022-07-29T17:49:13.612Z,7.63
2022-07-29T17:51:40.623Z,7.60
2022-07-29T17:54:07.628Z,8.55
2022-07-29T17:56:34.796Z,7.65
2022-07-29T17:59:06.549Z,7.75
2022-07-29T23:37:28.287Z,10.52
2022-07-29T23:39:55.489Z,9.50
2022-07-29T23:42:22.698Z,10.23
2022-07-29T23:44:50.000Z,9.05
2022-07-29T23:47:17.183Z,9.05
2022-07-29T23:49:44.600Z,8.05
2022-07-29T23:52:11.865Z,8.82
2022-07-29T23:54:38.868Z,8.25
2022-07-29T23:57:05.918Z,8.10
2022-07-29T23:59:33.278Z,8.95
